createdAt,value
2023-02-11T00:02:18.869Z,1030.07
2023-02-11T00:12:24.206Z,1030.06
2023-02-11T00:22:29.577Z,1030.38
2023-02-11T00:32:34.951Z,1030.36
2023-02-11T00:42:40.786Z,1029.98
2023-02-11T00:52:46.330Z,1030.09
2023-02-11T01:02:53.971Z,1030.19
2023-02-11T01:12:59.452Z,1029.85
2023-02-11T01:23:04.779Z,1029.50
2023-02-11T01:33:10.254Z,1029.39
2023-02-11T01:43:15.459Z,1029.24
2023-02-11T01:53:20.825Z,1029.33
2023-02-11T02:03:26.496Z,1029.15
2023-02-11T02:13:32.476Z,1029.16
2023-02-11T02:23:37.675Z,1029.12
2023-02-11T02:33:43.644Z,1028.96
2023-02-11T02:43:49.674Z,1028.87
2023-02-11T02:53:54.969Z,1028.82
2023-02-11T03:04:00.733Z,1028.62
2023-02-11T03:14:06.481Z,1028.56
2023-02-11T03:24:12.320Z,1028.59
2023-02-11T03:34:17.941Z,1028.56
2023-02-11T03:44:23.273Z,1028.59
2023-02-11T03:54:28.869Z,1028.53
2023-02-11T04:04:34.116Z,1028.42
2023-02-11T04:14:39.600Z,1028.52
2023-02-11T04:24:45.249Z,1028.54
2023-02-11T04:34:51.057Z,1028.48
2023-02-11T04:44:56.521Z,1028.24
2023-02-11T04:55:01.784Z,1028.23
2023-02-11T05:05:07.537Z,1027.96
2023-02-11T05:15:13.088Z,1027.87
2023-02-11T05:25:18.764Z,1027.67
2023-02-11T05:35:24.262Z,1027.53
2023-02-11T05:45:29.753Z,1027.51
2023-02-11T05:55:35.090Z,1027.44
2023-02-11T06:05:40.995Z,1027.54
2023-02-11T06:15:47.562Z,1027.71
2023-02-11T06:25:53.585Z,1027.60
2023-02-11T06:35:59.471Z,1027.60
2023-02-11T06:46:05.058Z,1027.48
2023-02-11T06:56:10.514Z,1027.46
2023-02-11T07:06:15.793Z,1027.56
2023-02-11T07:16:20.774Z,1027.38
2023-02-11T07:26:26.354Z,1027.27
2023-02-11T07:36:32.194Z,1027.21
2023-02-11T07:46:37.622Z,1027.20
2023-02-11T07:56:43.250Z,1027.29
2023-02-11T08:06:48.783Z,1027.22
2023-02-11T08:16:54.473Z,1027.49
2023-02-11T08:27:00.043Z,1027.67
2023-02-11T08:37:05.789Z,1027.59
2023-02-11T08:47:11.424Z,1027.70
2023-02-11T08:57:17.129Z,1027.46
2023-02-11T09:07:22.771Z,1027.41
2023-02-11T09:17:28.410Z,1027.48
2023-02-11T09:27:34.355Z,1027.49
2023-02-11T09:37:41.481Z,1027.67
2023-02-11T09:47:47.291Z,1027.72
2023-02-11T09:57:55.076Z,1027.88
2023-02-11T10:08:00.886Z,1027.92
2023-02-11T10:18:06.549Z,1028.03
2023-02-11T10:28:12.279Z,1028.12
2023-02-11T10:38:18.080Z,1028.11
2023-02-11T10:48:23.529Z,1027.83
2023-02-11T10:58:29.360Z,1027.88
2023-02-11T11:08:34.949Z,1027.65
2023-02-11T11:18:41.003Z,1027.59
2023-02-11T11:28:46.771Z,1027.61
2023-02-11T11:38:52.388Z,1027.75
2023-02-11T11:48:58.178Z,1027.71
2023-02-11T11:59:04.109Z,1027.69
2023-02-11T12:09:09.434Z,1027.63
2023-02-11T12:19:15.412Z,1027.55
2023-02-11T12:29:21.258Z,1027.46
2023-02-11T12:39:26.680Z,1027.64
2023-02-11T12:49:31.992Z,1027.56
2023-02-11T12:59:37.524Z,1027.65
2023-02-11T13:09:42.969Z,1027.84
2023-02-11T13:19:48.616Z,1027.80
2023-02-11T13:29:54.087Z,1027.95
2023-02-11T13:39:59.629Z,1028.03
2023-02-11T13:50:05.071Z,1028.23
2023-02-11T14:00:10.602Z,1028.14
2023-02-11T14:10:16.098Z,1028.18
2023-02-11T14:20:21.579Z,1028.14
2023-02-11T14:30:26.701Z,1028.13
2023-02-11T14:40:32.207Z,1028.26
2023-02-11T14:50:37.748Z,1028.27
2023-02-11T15:00:43.304Z,1028.32
2023-02-11T15:10:49.055Z,1028.61
2023-02-11T15:20:55.034Z,1028.72
2023-02-11T15:31:00.526Z,1028.74
2023-02-11T15:41:06.065Z,1028.92
2023-02-11T15:51:11.977Z,1028.88
2023-02-11T16:01:17.822Z,1028.89
2023-02-11T16:11:23.759Z,1029.07
2023-02-11T16:21:29.595Z,1029.13
2023-02-11T16:31:34.964Z,1029.05
2023-02-11T16:41:40.963Z,1029.08
2023-02-11T16:51:46.829Z,1029.25
2023-02-11T17:01:52.120Z,1029.53
2023-02-11T17:11:57.758Z,1029.69
2023-02-11T17:22:04.132Z,1029.80
2023-02-11T17:32:10.256Z,1029.88
2023-02-11T17:42:15.709Z,1029.99
2023-02-11T17:52:21.752Z,1030.18
2023-02-11T18:02:27.619Z,1030.21
2023-02-11T18:12:33.387Z,1030.41
2023-02-11T18:22:39.375Z,1030.60
2023-02-11T18:32:44.715Z,1030.73
2023-02-11T18:42:50.438Z,1030.90
2023-02-11T18:52:56.175Z,1031.07
2023-02-11T19:03:01.831Z,1031.12
2023-02-11T19:13:07.724Z,1031.22
2023-02-11T19:23:13.868Z,1031.35
2023-02-11T19:33:19.979Z,1031.57
2023-02-11T19:43:25.854Z,1031.45
2023-02-11T19:53:31.287Z,1031.41
2023-02-11T20:03:37.684Z,1031.57
2023-02-11T20:13:43.095Z,1031.84
2023-02-11T20:23:48.198Z,1031.81
2023-02-11T20:33:53.786Z,1031.73
2023-02-11T20:43:59.073Z,1032.11
2023-02-11T20:54:04.663Z,1032.23
2023-02-11T21:04:09.618Z,1032.29
2023-02-11T21:14:14.941Z,1032.32
2023-02-11T21:24:20.397Z,1032.59
2023-02-11T21:34:25.900Z,1032.80
2023-02-11T21:44:31.195Z,1032.93
2023-02-11T21:54:36.354Z,1032.96
2023-02-11T22:04:41.752Z,1033.08
2023-02-11T22:14:47.532Z,1033.17
2023-02-11T22:24:52.548Z,1033.40
2023-02-11T22:34:57.716Z,1033.57
2023-02-11T22:45:03.239Z,1033.69
2023-02-11T22:55:08.559Z,1033.77
2023-02-11T23:05:13.685Z,1033.87
2023-02-11T23:15:19.218Z,1033.95
2023-02-11T23:25:24.801Z,1034.03
2023-02-11T23:35:30.821Z,1034.04
2023-02-11T23:45:36.302Z,1034.19
2023-02-11T23:55:41.853Z,1034.20
